Time;durP1;ratioP1;P1;durP2;ratioP2;P2;SDS_P1;SDS_P2;PMS_P1;PMS_P2;Temp;Humidity;BMP_temperature;BMP_pressure;BME280_temperature;BME280_humidity;BME280_pressure;Samples;Min_cycle;Max_cycle;Signal;HPM_P1;HPM_P2
2021/04/25 00:01:36;;;;;;;21.17;9.70;;;;;;;;;;4988383;28;20027;-84
2021/04/25 00:04:01;;;;;;;19.50;9.52;;;;;;;;;;4979581;28;20057;-85
2021/04/25 00:06:26;;;;;;;16.30;8.77;;;;;;;;;;4975932;28;20031;-83
2021/04/25 00:08:52;;;;;;;16.92;9.07;;;;;;;;;;4976068;28;20041;-85
2021/04/25 00:11:17;;;;;;;16.83;8.43;;;;;;;;;;4976101;28;20019;-84
2021/04/25 00:13:43;;;;;;;16.52;8.80;;;;;;;;;;4982869;28;20065;-84
2021/04/25 00:16:09;;;;;;;18.40;9.13;;;;;;;;;;5004506;28;20019;-85
2021/04/25 00:18:35;;;;;;;15.65;8.48;;;;;;;;;;4984099;28;20041;-86
2021/04/25 00:21:01;;;;;;;14.95;7.25;;;;;;;;;;4974166;28;20026;-85
2021/04/25 00:23:26;;;;;;;16.40;7.38;;;;;;;;;;4968102;28;20082;-85
2021/04/25 00:25:51;;;;;;;18.25;9.27;;;;;;;;;;4985747;28;20614;-86
2021/04/25 00:28:17;;;;;;;16.48;7.15;;;;;;;;;;4982263;28;20062;-85
2021/04/25 00:30:43;;;;;;;18.67;8.27;;;;;;;;;;4984762;28;20046;-85
2021/04/25 00:33:08;;;;;;;15.80;8.30;;;;;;;;;;4974979;28;20026;-84
2021/04/25 00:35:35;;;;;;;16.25;6.65;;;;;;;;;;4983988;28;20030;-85
2021/04/25 00:38:00;;;;;;;13.05;5.60;;;;;;;;;;4974810;28;20047;-83
2021/04/25 00:40:25;;;;;;;10.73;4.88;;;;;;;;;;4969026;28;20086;-85
2021/04/25 00:42:50;;;;;;;12.30;5.72;;;;;;;;;;4971318;28;20403;-85
2021/04/25 00:45:17;;;;;;;10.50;5.55;;;;;;;;;;4971188;28;20494;-85
2021/04/25 00:47:43;;;;;;;13.57;5.90;;;;;;;;;;4982174;28;20031;-86
2021/04/25 00:50:09;;;;;;;12.57;5.90;;;;;;;;;;4965892;28;20054;-85
2021/04/25 00:52:40;;;;;;;9.38;5.07;;;;;;;;;;4980995;28;20113;-86
2021/04/25 00:55:06;;;;;;;11.95;6.32;;;;;;;;;;4978186;28;20084;-84
2021/04/25 00:57:32;;;;;;;9.68;4.88;;;;;;;;;;4972785;28;20396;-85
2021/04/25 00:59:57;;;;;;;11.88;5.68;;;;;;;;;;4966147;28;20034;-85
2021/04/25 01:02:23;;;;;;;11.05;5.13;;;;;;;;;;4975480;28;20126;-83
2021/04/25 01:04:49;;;;;;;10.15;4.85;;;;;;;;;;4973162;28;20435;-85
2021/04/25 01:07:14;;;;;;;10.55;5.57;;;;;;;;;;4981244;28;20026;-84
2021/04/25 01:09:40;;;;;;;11.23;5.07;;;;;;;;;;4977378;28;20085;-85
2021/04/25 01:12:06;;;;;;;11.85;6.20;;;;;;;;;;4969840;28;20027;-85
2021/04/25 01:14:31;;;;;;;10.55;5.22;;;;;;;;;;4972582;28;20033;-85
2021/04/25 01:16:56;;;;;;;15.93;6.13;;;;;;;;;;4979931;28;20202;-84
2021/04/25 01:19:21;;;;;;;14.00;5.47;;;;;;;;;;4966677;28;20114;-85
2021/04/25 01:21:47;;;;;;;15.77;5.93;;;;;;;;;;4974058;28;20094;-85
2021/04/25 01:24:12;;;;;;;12.23;5.60;;;;;;;;;;4994630;28;20090;-85
2021/04/25 01:26:37;;;;;;;12.70;6.03;;;;;;;;;;4976501;28;20027;-84
2021/04/25 01:29:03;;;;;;;11.85;6.30;;;;;;;;;;4972593;28;20038;-85
2021/04/25 01:31:28;;;;;;;11.13;6.15;;;;;;;;;;4973657;28;20121;-85
2021/04/25 01:33:54;;;;;;;11.27;5.88;;;;;;;;;;4976280;28;20541;-84
2021/04/25 01:36:20;;;;;;;10.43;5.00;;;;;;;;;;4974592;28;20046;-85
2021/04/25 01:38:45;;;;;;;13.07;5.85;;;;;;;;;;4981390;28;20023;-84
2021/04/25 01:41:10;;;;;;;13.82;5.75;;;;;;;;;;4973037;28;20030;-85
2021/04/25 01:43:35;;;;;;;13.32;6.53;;;;;;;;;;4970495;28;20029;-86
2021/04/25 01:46:00;;;;;;;10.82;6.20;;;;;;;;;;4983187;28;20551;-85
2021/04/25 01:48:26;;;;;;;15.98;5.80;;;;;;;;;;4983621;28;20031;-85
2021/04/25 01:50:51;;;;;;;12.55;5.70;;;;;;;;;;4985905;28;20042;-86
2021/04/25 01:53:16;;;;;;;13.07;6.03;;;;;;;;;;4993844;28;20109;-86
2021/04/25 01:55:41;;;;;;;13.85;5.65;;;;;;;;;;4980768;28;20038;-85
2021/04/25 01:58:07;;;;;;;11.75;5.70;;;;;;;;;;4980814;28;20026;-86
2021/04/25 02:00:34;;;;;;;14.30;6.38;;;;;;;;;;4977391;28;20023;-85
2021/04/25 02:03:00;;;;;;;12.05;6.68;;;;;;;;;;4977182;28;20031;-85
2021/04/25 02:05:26;;;;;;;12.07;5.72;;;;;;;;;;4975995;28;20371;-86
2021/04/25 02:07:52;;;;;;;14.07;6.45;;;;;;;;;;4976213;28;20033;-86
2021/04/25 02:10:18;;;;;;;12.68;6.07;;;;;;;;;;4985103;28;20347;-85
2021/04/25 02:12:43;;;;;;;10.07;5.63;;;;;;;;;;4979268;28;20034;-85
2021/04/25 02:15:08;;;;;;;12.13;5.38;;;;;;;;;;4982688;28;20073;-87
2021/04/25 02:17:34;;;;;;;10.25;5.53;;;;;;;;;;4976527;28;20030;-87
2021/04/25 02:19:59;;;;;;;11.48;6.20;;;;;;;;;;4975923;28;20112;-86
2021/04/25 02:22:24;;;;;;;14.75;6.82;;;;;;;;;;4975858;28;20109;-86
2021/04/25 02:24:50;;;;;;;12.00;6.20;;;;;;;;;;4978834;28;20042;-86
2021/04/25 02:27:15;;;;;;;11.38;6.55;;;;;;;;;;4958197;28;20062;-84
2021/04/25 02:29:40;;;;;;;9.38;5.35;;;;;;;;;;4994034;28;20021;-85
2021/04/25 02:32:05;;;;;;;13.10;5.93;;;;;;;;;;4993842;28;20081;-86
2021/04/25 02:34:31;;;;;;;11.23;6.32;;;;;;;;;;4982773;28;20026;-84
2021/04/25 02:36:58;;;;;;;11.60;5.75;;;;;;;;;;4974536;28;20018;-85
2021/04/25 02:39:24;;;;;;;10.73;5.72;;;;;;;;;;4982819;28;20473;-85
2021/04/25 02:41:49;;;;;;;11.13;5.82;;;;;;;;;;4977700;28;20104;-83
2021/04/25 02:44:14;;;;;;;12.65;6.32;;;;;;;;;;4978290;28;20054;-86
2021/04/25 02:46:39;;;;;;;11.52;5.47;;;;;;;;;;4993788;28;20026;-84
2021/04/25 02:49:05;;;;;;;10.98;5.45;;;;;;;;;;4976576;28;20089;-84
2021/04/25 02:51:30;;;;;;;14.35;6.38;;;;;;;;;;4981522;28;20029;-85
2021/04/25 02:53:55;;;;;;;10.45;5.78;;;;;;;;;;4975906;28;20498;-85
2021/04/25 02:56:21;;;;;;;11.52;5.90;;;;;;;;;;4987697;28;20034;-84
2021/04/25 02:58:46;;;;;;;13.70;6.20;;;;;;;;;;4978190;28;20048;-85
2021/04/25 03:01:11;;;;;;;12.77;5.70;;;;;;;;;;4976046;28;20023;-86
2021/04/25 03:03:36;;;;;;;12.05;6.35;;;;;;;;;;4981387;28;20027;-85
2021/04/25 03:06:01;;;;;;;13.23;6.28;;;;;;;;;;4978175;28;20133;-85
2021/04/25 03:08:26;;;;;;;12.00;6.03;;;;;;;;;;4981480;28;20149;-85
2021/04/25 03:10:52;;;;;;;13.88;6.00;;;;;;;;;;4975785;28;20069;-85
2021/04/25 03:13:17;;;;;;;12.52;5.68;;;;;;;;;;4981917;28;20110;-85
2021/04/25 03:15:42;;;;;;;14.50;5.95;;;;;;;;;;4990650;28;20030;-86
2021/04/25 03:18:08;;;;;;;13.88;6.53;;;;;;;;;;4982505;28;20516;-86
2021/04/25 03:20:33;;;;;;;13.02;5.53;;;;;;;;;;4995003;28;20121;-84
2021/04/25 03:22:58;;;;;;;11.90;5.82;;;;;;;;;;4977301;28;20031;-85
2021/04/25 03:25:23;;;;;;;12.00;5.88;;;;;;;;;;4981019;28;20037;-87
2021/04/25 03:27:51;;;;;;;11.20;6.20;;;;;;;;;;4963669;28;20027;-86
2021/04/25 03:30:17;;;;;;;14.52;6.32;;;;;;;;;;4988627;28;20042;-86
2021/04/25 03:32:42;;;;;;;10.48;5.85;;;;;;;;;;4978342;28;20034;-86
2021/04/25 03:35:10;;;;;;;11.90;6.72;;;;;;;;;;4986439;28;20023;-86
2021/04/25 03:37:36;;;;;;;10.82;6.43;;;;;;;;;;4996593;28;20074;-84
2021/04/25 03:40:02;;;;;;;17.08;6.20;;;;;;;;;;4977767;28;20031;-85
2021/04/25 03:42:28;;;;;;;13.60;5.78;;;;;;;;;;4968425;28;20026;-85
2021/04/25 03:44:53;;;;;;;12.13;6.28;;;;;;;;;;4981697;28;20073;-86
2021/04/25 03:47:18;;;;;;;11.43;5.90;;;;;;;;;;4992317;28;20034;-85
2021/04/25 03:49:44;;;;;;;11.43;6.07;;;;;;;;;;4998159;28;20101;-84
2021/04/25 03:52:09;;;;;;;15.30;6.47;;;;;;;;;;5010148;28;20037;-86
2021/04/25 03:54:35;;;;;;;12.77;6.13;;;;;;;;;;4978774;28;20078;-85
2021/04/25 03:57:00;;;;;;;11.93;7.03;;;;;;;;;;4987747;28;20018;-86
2021/04/25 03:59:26;;;;;;;12.10;6.60;;;;;;;;;;4988269;28;20037;-86
2021/04/25 04:01:51;;;;;;;15.30;6.80;;;;;;;;;;4983304;28;20023;-86
2021/04/25 04:04:16;;;;;;;15.68;7.03;;;;;;;;;;4987096;28;20382;-86
2021/04/25 04:06:41;;;;;;;14.30;6.80;;;;;;;;;;4979162;28;20027;-85
2021/04/25 04:09:07;;;;;;;13.10;6.78;;;;;;;;;;4976046;28;20031;-85
2021/04/25 04:11:32;;;;;;;13.95;6.53;;;;;;;;;;4982018;28;20019;-85
2021/04/25 04:13:57;;;;;;;17.00;7.20;;;;;;;;;;4977683;28;20030;-86
2021/04/25 04:16:23;;;;;;;12.70;6.30;;;;;;;;;;4987874;28;20046;-85
2021/04/25 04:18:48;;;;;;;10.40;5.57;;;;;;;;;;4985815;28;20022;-84
2021/04/25 04:21:14;;;;;;;12.55;6.47;;;;;;;;;;4979185;28;20042;-86
2021/04/25 04:23:39;;;;;;;14.32;6.95;;;;;;;;;;4980525;28;20497;-86
2021/04/25 04:26:04;;;;;;;13.25;6.63;;;;;;;;;;4980310;28;20422;-86
2021/04/25 04:28:29;;;;;;;16.92;7.38;;;;;;;;;;4979775;28;20023;-86
2021/04/25 04:30:54;;;;;;;11.18;6.00;;;;;;;;;;4978514;28;20034;-87
2021/04/25 04:33:20;;;;;;;11.05;6.32;;;;;;;;;;4994619;28;20021;-86
2021/04/25 04:35:45;;;;;;;14.25;6.60;;;;;;;;;;4995476;28;20026;-86
2021/04/25 04:38:10;;;;;;;13.80;6.90;;;;;;;;;;4977892;28;20025;-85
2021/04/25 04:40:35;;;;;;;13.30;7.03;;;;;;;;;;4977783;28;20036;-87
2021/04/25 04:43:00;;;;;;;13.77;6.35;;;;;;;;;;4983361;28;20011;-85
2021/04/25 04:45:26;;;;;;;12.82;7.10;;;;;;;;;;4997980;28;20067;-84
2021/04/25 04:47:51;;;;;;;15.02;7.85;;;;;;;;;;4986086;28;20786;-84
2021/04/25 04:50:17;;;;;;;10.77;6.38;;;;;;;;;;4991484;28;20023;-86
2021/04/25 04:52:43;;;;;;;12.25;6.25;;;;;;;;;;4983211;28;20108;-83
2021/04/25 04:55:10;;;;;;;14.73;6.60;;;;;;;;;;4994174;28;20026;-85
2021/04/25 04:57:35;;;;;;;10.43;6.65;;;;;;;;;;4985653;28;20446;-83
2021/04/25 05:00:00;;;;;;;14.82;7.25;;;;;;;;;;4980014;28;20038;-83
2021/04/25 05:02:26;;;;;;;14.00;7.10;;;;;;;;;;4977960;28;20085;-83
2021/04/25 05:04:51;;;;;;;13.30;7.05;;;;;;;;;;4981288;28;20045;-81
2021/04/25 05:07:16;;;;;;;12.40;7.38;;;;;;;;;;4973300;28;20054;-84
2021/04/25 05:09:41;;;;;;;14.80;7.30;;;;;;;;;;4983819;28;20050;-83
2021/04/25 05:12:07;;;;;;;15.73;7.03;;;;;;;;;;4971787;28;20027;-85
2021/04/25 05:14:32;;;;;;;10.75;6.60;;;;;;;;;;4988642;28;20382;-84
2021/04/25 05:16:57;;;;;;;12.40;6.50;;;;;;;;;;4977248;28;20118;-85
2021/04/25 05:19:23;;;;;;;12.60;6.63;;;;;;;;;;4983150;28;20037;-84
2021/04/25 05:21:48;;;;;;;15.20;7.25;;;;;;;;;;4990617;28;20030;-84
2021/04/25 05:24:13;;;;;;;12.75;6.90;;;;;;;;;;4989574;28;20018;-86
2021/04/25 05:26:39;;;;;;;10.40;6.78;;;;;;;;;;4982227;28;20050;-85
2021/04/25 05:29:04;;;;;;;11.52;6.63;;;;;;;;;;4976365;28;20121;-85
2021/04/25 05:31:29;;;;;;;13.13;7.22;;;;;;;;;;4983969;28;20102;-85
2021/04/25 05:33:55;;;;;;;12.63;7.65;;;;;;;;;;4987248;28;20081;-85
2021/04/25 05:36:20;;;;;;;15.65;7.82;;;;;;;;;;4977168;28;20019;-86
2021/04/25 05:38:46;;;;;;;13.65;8.07;;;;;;;;;;4983105;28;20031;-86
2021/04/25 05:41:11;;;;;;;11.73;7.75;;;;;;;;;;4979136;28;20039;-84
2021/04/25 05:43:36;;;;;;;11.70;7.85;;;;;;;;;;4992488;28;20030;-86
2021/04/25 05:46:01;;;;;;;14.07;8.25;;;;;;;;;;4980663;28;20089;-86
2021/04/25 05:48:27;;;;;;;12.48;7.95;;;;;;;;;;4975561;28;20031;-86
2021/04/25 05:50:53;;;;;;;13.00;8.48;;;;;;;;;;4997028;28;20011;-85
2021/04/25 05:53:19;;;;;;;13.02;8.85;;;;;;;;;;4998205;28;20074;-83
2021/04/25 05:55:45;;;;;;;12.43;8.63;;;;;;;;;;4975735;28;20050;-86
2021/04/25 05:58:11;;;;;;;18.20;8.77;;;;;;;;;;4984929;28;20157;-85
2021/04/25 06:00:39;;;;;;;16.25;9.18;;;;;;;;;;4979742;28;20014;-85
2021/04/25 06:03:05;;;;;;;12.07;8.73;;;;;;;;;;4991498;28;20022;-85
2021/04/25 06:05:30;;;;;;;15.90;8.43;;;;;;;;;;4988506;28;20076;-85
2021/04/25 06:07:55;;;;;;;17.17;9.05;;;;;;;;;;4978174;28;20035;-86
2021/04/25 06:10:21;;;;;;;16.10;8.93;;;;;;;;;;4987966;28;20069;-86
2021/04/25 06:12:48;;;;;;;13.00;8.23;;;;;;;;;;4979947;28;20050;-84
2021/04/25 06:15:14;;;;;;;15.48;9.57;;;;;;;;;;4975228;28;20027;-85
2021/04/25 06:17:39;;;;;;;14.30;8.70;;;;;;;;;;4977517;28;20114;-84
2021/04/25 06:20:04;;;;;;;16.52;9.48;;;;;;;;;;4985196;28;20470;-85
2021/04/25 06:22:31;;;;;;;16.05;9.70;;;;;;;;;;4973218;28;20018;-85
2021/04/25 06:24:56;;;;;;;16.73;10.13;;;;;;;;;;4978375;28;20034;-86
2021/04/25 06:27:22;;;;;;;15.60;8.38;;;;;;;;;;4982993;28;20519;-84
2021/04/25 06:29:47;;;;;;;16.75;8.68;;;;;;;;;;4989695;28;20038;-84
2021/04/25 06:32:12;;;;;;;12.82;8.77;;;;;;;;;;4984351;28;20027;-84
2021/04/25 06:34:38;;;;;;;16.88;8.80;;;;;;;;;;4981389;28;20046;-84
2021/04/25 06:37:03;;;;;;;16.67;9.35;;;;;;;;;;4983359;28;20034;-86
2021/04/25 06:39:28;;;;;;;16.85;10.02;;;;;;;;;;4977827;28;20062;-86
2021/04/25 06:41:53;;;;;;;13.77;8.90;;;;;;;;;;4976649;28;20382;-87
2021/04/25 06:44:19;;;;;;;13.30;8.85;;;;;;;;;;4985577;28;20050;-86
2021/04/25 06:46:45;;;;;;;14.25;10.20;;;;;;;;;;4982633;28;20050;-84
2021/04/25 06:49:10;;;;;;;14.60;9.05;;;;;;;;;;4983426;28;20078;-86
2021/04/25 06:51:35;;;;;;;16.45;9.57;;;;;;;;;;4991276;28;20030;-86
2021/04/25 06:54:00;;;;;;;13.68;9.50;;;;;;;;;;4977422;28;20046;-85
2021/04/25 06:56:26;;;;;;;16.30;9.77;;;;;;;;;;4975004;28;20031;-86
2021/04/25 06:58:51;;;;;;;16.98;10.20;;;;;;;;;;4995669;28;20047;-84
2021/04/25 07:01:16;;;;;;;17.40;10.38;;;;;;;;;;4999509;28;20031;-85
2021/04/25 07:03:42;;;;;;;17.92;11.15;;;;;;;;;;4984938;28;20030;-85
2021/04/25 07:06:07;;;;;;;15.80;10.10;;;;;;;;;;4984742;28;20026;-86
2021/04/25 07:08:34;;;;;;;17.27;10.23;;;;;;;;;;4987872;28;20089;-84
2021/04/25 07:10:59;;;;;;;19.40;11.88;;;;;;;;;;4991596;28;20027;-85
2021/04/25 07:13:24;;;;;;;19.17;11.35;;;;;;;;;;4988767;28;20030;-83
2021/04/25 07:15:50;;;;;;;17.83;10.90;;;;;;;;;;4978425;28;20026;-82
2021/04/25 07:18:15;;;;;;;23.40;12.13;;;;;;;;;;4981225;28;20031;-83
2021/04/25 07:20:40;;;;;;;18.88;10.80;;;;;;;;;;4984772;28;20395;-83
2021/04/25 07:23:06;;;;;;;17.25;10.25;;;;;;;;;;4973769;28;20022;-85
2021/04/25 07:25:31;;;;;;;17.35;11.23;;;;;;;;;;4982583;28;20026;-85
2021/04/25 07:27:57;;;;;;;17.33;12.00;;;;;;;;;;4972910;28;20077;-83
2021/04/25 07:30:22;;;;;;;16.40;11.20;;;;;;;;;;4978896;28;20154;-82
2021/04/25 07:32:48;;;;;;;19.85;11.15;;;;;;;;;;4983154;28;20030;-86
2021/04/25 07:35:13;;;;;;;21.05;12.13;;;;;;;;;;4974113;28;20073;-83
2021/04/25 07:37:38;;;;;;;16.75;11.25;;;;;;;;;;4978140;28;20471;-84
2021/04/25 07:40:04;;;;;;;19.67;11.60;;;;;;;;;;4976226;28;20030;-85
2021/04/25 07:42:30;;;;;;;18.33;11.40;;;;;;;;;;4975778;28;20018;-85
2021/04/25 07:44:55;;;;;;;16.65;11.07;;;;;;;;;;4987399;28;20184;-84
2021/04/25 07:47:20;;;;;;;20.23;11.20;;;;;;;;;;4994047;28;20066;-84
2021/04/25 07:49:45;;;;;;;17.58;11.15;;;;;;;;;;4994744;28;20077;-83
2021/04/25 07:52:11;;;;;;;17.77;11.15;;;;;;;;;;4997123;28;20003;-85
2021/04/25 07:54:36;;;;;;;20.60;11.52;;;;;;;;;;4982434;28;20002;-82
2021/04/25 07:57:01;;;;;;;17.55;11.85;;;;;;;;;;4996574;28;20018;-81
2021/04/25 07:59:27;;;;;;;18.30;10.77;;;;;;;;;;4985920;28;20018;-82
2021/04/25 08:01:52;;;;;;;22.05;12.02;;;;;;;;;;4973798;28;20019;-82
2021/04/25 08:04:17;;;;;;;20.75;11.95;;;;;;;;;;4980055;28;20023;-82
2021/04/25 08:06:43;;;;;;;18.00;12.15;;;;;;;;;;5004485;28;20030;-80
2021/04/25 08:09:09;;;;;;;20.20;12.68;;;;;;;;;;4987960;28;20133;-81
2021/04/25 08:11:35;;;;;;;16.42;11.02;;;;;;;;;;4976165;28;20050;-82
2021/04/25 08:14:00;;;;;;;17.95;10.88;;;;;;;;;;4975792;28;20027;-81
2021/04/25 08:16:25;;;;;;;15.65;11.35;;;;;;;;;;4977410;28;20136;-84
2021/04/25 08:18:50;;;;;;;19.15;11.05;;;;;;;;;;4985573;28;20085;-82
2021/04/25 08:21:16;;;;;;;17.38;10.05;;;;;;;;;;4988498;28;20058;-80
2021/04/25 08:23:41;;;;;;;17.85;10.55;;;;;;;;;;4972308;28;20015;-83
2021/04/25 08:26:06;;;;;;;16.55;10.05;;;;;;;;;;4980863;28;20018;-84
2021/04/25 08:28:31;;;;;;;21.10;11.43;;;;;;;;;;4984191;28;20023;-83
2021/04/25 08:30:57;;;;;;;18.95;10.43;;;;;;;;;;4977914;28;20041;-84
2021/04/25 08:33:22;;;;;;;17.60;11.50;;;;;;;;;;4976966;28;20015;-84
2021/04/25 08:35:47;;;;;;;19.02;11.85;;;;;;;;;;4978440;28;20034;-82
2021/04/25 08:38:14;;;;;;;17.60;10.23;;;;;;;;;;4972386;28;20023;-83
2021/04/25 08:40:39;;;;;;;20.45;11.15;;;;;;;;;;4974631;28;20033;-83
2021/04/25 08:43:04;;;;;;;19.80;10.95;;;;;;;;;;4979491;28;20023;-83
2021/04/25 08:45:30;;;;;;;19.55;11.82;;;;;;;;;;4977644;28;20049;-83
2021/04/25 08:47:59;;;;;;;19.15;9.95;;;;;;;;;;4971970;28;20031;-84
2021/04/25 08:50:28;;;;;;;18.42;11.65;;;;;;;;;;4981816;28;20447;-85
2021/04/25 08:52:53;;;;;;;13.30;9.27;;;;;;;;;;4978028;28;20035;-83
2021/04/25 08:55:18;;;;;;;15.13;10.10;;;;;;;;;;4973533;28;20632;-84
2021/04/25 08:57:44;;;;;;;19.70;11.40;;;;;;;;;;4968877;28;20039;-82
2021/04/25 09:00:10;;;;;;;18.45;10.23;;;;;;;;;;4970957;28;20027;-82
2021/04/25 09:02:35;;;;;;;17.70;9.75;;;;;;;;;;4974678;28;20353;-81
2021/04/25 09:05:01;;;;;;;16.13;9.98;;;;;;;;;;4978754;28;20901;-80
2021/04/25 09:07:26;;;;;;;18.38;10.38;;;;;;;;;;4977375;28;20085;-82
2021/04/25 09:09:52;;;;;;;18.85;10.98;;;;;;;;;;4980199;28;20038;-82
2021/04/25 09:12:36;;;;;;;18.20;10.93;;;;;;;;;;4984742;28;20548;-79
2021/04/25 09:15:23;;;;;;;15.52;9.80;;;;;;;;;;4977630;28;20521;-80
2021/04/25 09:17:51;;;;;;;15.85;9.10;;;;;;;;;;4974049;28;20022;-80
2021/04/25 09:20:20;;;;;;;21.15;11.10;;;;;;;;;;4970725;28;20501;-80
2021/04/25 09:22:50;;;;;;;16.83;9.90;;;;;;;;;;4976856;28;20455;-90
2021/04/25 09:25:18;;;;;;;25.17;14.52;;;;;;;;;;4981504;28;20019;-91
2021/04/25 09:27:44;;;;;;;19.42;11.07;;;;;;;;;;4975730;28;20129;-87
2021/04/25 09:30:09;;;;;;;17.73;10.82;;;;;;;;;;4970292;28;20042;-86
2021/04/25 09:32:35;;;;;;;17.23;9.77;;;;;;;;;;4973980;28;20107;-84
2021/04/25 09:35:10;;;;;;;15.07;9.25;;;;;;;;;;4971960;28;20509;-84
2021/04/25 09:37:37;;;;;;;14.77;9.35;;;;;;;;;;4972803;28;20106;-93
2021/04/25 09:40:07;;;;;;;20.67;8.82;;;;;;;;;;4975057;28;20077;-90
2021/04/25 09:42:53;;;;;;;18.25;9.38;;;;;;;;;;5001191;28;20062;-85
2021/04/25 09:45:26;;;;;;;14.55;8.65;;;;;;;;;;4994841;28;20053;-92
2021/04/25 09:48:00;;;;;;;21.92;10.57;;;;;;;;;;5005008;28;20045;-94
2021/04/25 09:50:26;;;;;;;15.90;9.60;;;;;;;;;;4972915;28;20046;-84
2021/04/25 09:52:51;;;;;;;19.45;9.65;;;;;;;;;;4968965;28;20033;-86
2021/04/25 09:55:27;;;;;;;17.10;10.65;;;;;;;;;;4971545;28;20106;-83
2021/04/25 09:57:57;;;;;;;15.10;9.30;;;;;;;;;;4970846;28;20043;-82
2021/04/25 10:00:22;;;;;;;;;;;;;;;;;;4971856;28;20070;-85
2021/04/25 10:02:54;;;;;;;18.08;10.13;;;;;;;;;;4972979;28;20263;-85
2021/04/25 10:05:20;;;;;;;19.67;10.50;;;;;;;;;;4971627;28;20274;-82
2021/04/25 10:07:45;;;;;;;17.58;9.40;;;;;;;;;;4970716;28;20171;-84
2021/04/25 10:10:11;;;;;;;14.07;8.57;;;;;;;;;;4974883;28;20141;-91
2021/04/25 10:12:37;;;;;;;25.60;10.02;;;;;;;;;;4986574;28;20025;-87
2021/04/25 10:15:03;;;;;;;18.83;9.10;;;;;;;;;;5001378;28;20075;-86
2021/04/25 10:17:29;;;;;;;14.15;8.77;;;;;;;;;;4988141;28;20447;-88
2021/04/25 10:19:54;;;;;;;16.90;9.85;;;;;;;;;;4983249;28;20046;-87
2021/04/25 10:22:20;;;;;;;18.73;9.65;;;;;;;;;;4984855;28;20022;-81
2021/04/25 10:24:45;;;;;;;16.98;10.50;;;;;;;;;;4968591;28;20039;-82
2021/04/25 10:27:13;;;;;;;16.80;10.10;;;;;;;;;;4969367;28;20023;-85
2021/04/25 10:29:44;;;;;;;17.02;9.43;;;;;;;;;;4980632;28;20042;-83
2021/04/25 10:32:09;;;;;;;18.38;9.68;;;;;;;;;;4974163;28;20019;-86
2021/04/25 10:34:35;;;;;;;16.98;10.82;;;;;;;;;;4977695;28;20029;-82
2021/04/25 10:37:02;;;;;;;14.18;8.48;;;;;;;;;;4973566;28;20023;-82
2021/04/25 10:39:38;;;;;;;14.85;9.05;;;;;;;;;;4977643;28;20023;-82
2021/04/25 10:45:05;;;;;;;14.02;8.30;;;;;;;;;;4976926;28;20063;-83
2021/04/25 10:47:34;;;;;;;12.85;8.55;;;;;;;;;;4972302;28;20118;-83
2021/04/25 10:50:00;;;;;;;17.85;9.68;;;;;;;;;;4972239;28;20031;-83
2021/04/25 10:52:30;;;;;;;19.52;10.50;;;;;;;;;;4970554;28;20600;-85
2021/04/25 10:55:07;;;;;;;17.05;10.07;;;;;;;;;;4973137;28;20049;-83
2021/04/25 10:57:33;;;;;;;14.15;9.70;;;;;;;;;;4972952;28;20537;-83
2021/04/25 11:00:16;;;;;;;13.85;8.88;;;;;;;;;;4978059;28;20019;-79
2021/04/25 11:02:46;;;;;;;16.52;8.93;;;;;;;;;;4974956;28;20030;-85
2021/04/25 11:05:12;;;;;;;18.55;9.68;;;;;;;;;;4979958;28;20037;-83
2021/04/25 11:07:38;;;;;;;12.80;7.90;;;;;;;;;;4976793;28;20050;-84
2021/04/25 11:10:03;;;;;;;13.95;7.85;;;;;;;;;;4972624;28;20038;-85
2021/04/25 11:12:42;;;;;;;13.27;8.20;;;;;;;;;;4972577;28;20033;-83
2021/04/25 11:15:07;;;;;;;15.60;7.82;;;;;;;;;;4973968;28;20122;-82
2021/04/25 11:17:33;;;;;;;12.73;6.63;;;;;;;;;;4985578;28;20051;-85
2021/04/25 11:19:58;;;;;;;12.50;6.88;;;;;;;;;;4993842;28;20030;-85
2021/04/25 11:22:42;;;;;;;13.60;7.32;;;;;;;;;;4979924;28;20120;-86
2021/04/25 11:25:27;;;;;;;12.77;6.63;;;;;;;;;;4972371;28;20132;-85
2021/04/25 11:27:52;;;;;;;15.52;7.63;;;;;;;;;;4975315;28;20027;-88
2021/04/25 11:30:37;;;;;;;10.77;6.78;;;;;;;;;;4982173;28;20067;-85
2021/04/25 11:33:21;;;;;;;15.25;7.78;;;;;;;;;;4968191;28;20019;-86
2021/04/25 11:35:46;;;;;;;11.27;7.32;;;;;;;;;;4976477;28;20029;-85
2021/04/25 11:38:12;;;;;;;12.77;7.18;;;;;;;;;;4981058;28;20027;-88
2021/04/25 11:40:37;;;;;;;19.80;7.95;;;;;;;;;;4984660;28;20030;-88
2021/04/25 11:43:02;;;;;;;16.55;9.63;;;;;;;;;;4990474;28;20033;-82
2021/04/25 11:45:29;;;;;;;14.15;7.95;;;;;;;;;;4993721;28;20045;-85
2021/04/25 11:48:01;;;;;;;13.30;7.10;;;;;;;;;;4990973;28;20034;-83
2021/04/25 11:50:31;;;;;;;11.93;7.32;;;;;;;;;;4980758;28;20054;-87
2021/04/25 11:52:57;;;;;;;12.02;7.03;;;;;;;;;;4974629;28;20029;-85
2021/04/25 11:55:22;;;;;;;12.48;7.88;;;;;;;;;;4976537;28;20031;-83
2021/04/25 11:57:49;;;;;;;15.05;8.18;;;;;;;;;;4973932;28;20033;-85
2021/04/25 12:00:15;;;;;;;13.35;6.90;;;;;;;;;;4975025;28;20358;-84
2021/04/25 12:02:47;;;;;;;11.57;6.57;;;;;;;;;;4977034;28;20022;-86
2021/04/25 12:05:13;;;;;;;13.23;8.05;;;;;;;;;;4969491;28;20046;-79
2021/04/25 12:07:49;;;;;;;14.02;7.65;;;;;;;;;;4971472;28;20374;-79
2021/04/25 12:10:14;;;;;;;11.00;6.72;;;;;;;;;;4971547;28;20058;-80
2021/04/25 12:12:59;;;;;;;13.57;6.65;;;;;;;;;;4971377;28;20382;-80
2021/04/25 12:15:25;;;;;;;13.27;7.63;;;;;;;;;;4967226;28;20290;-82
2021/04/25 12:17:51;;;;;;;12.48;7.15;;;;;;;;;;4969107;28;20030;-81
2021/04/25 12:20:16;;;;;;;18.80;9.75;;;;;;;;;;4973016;28;20034;-78
2021/04/25 12:22:41;;;;;;;17.45;6.70;;;;;;;;;;4970334;28;20027;-80
2021/04/25 12:25:07;;;;;;;13.38;6.70;;;;;;;;;;4970989;28;20510;-80
2021/04/25 12:27:32;;;;;;;12.23;7.32;;;;;;;;;;4972341;28;20355;-82
2021/04/25 12:29:58;;;;;;;16.10;9.30;;;;;;;;;;4969889;28;20085;-82
2021/04/25 12:32:24;;;;;;;11.95;7.22;;;;;;;;;;4971210;28;20023;-83
2021/04/25 12:35:01;;;;;;;15.40;9.20;;;;;;;;;;4969017;28;20030;-83
2021/04/25 12:37:33;;;;;;;13.48;7.90;;;;;;;;;;4982257;28;20478;-81
2021/04/25 12:39:59;;;;;;;10.13;6.60;;;;;;;;;;4970981;28;20425;-81
2021/04/25 12:42:24;;;;;;;12.95;6.68;;;;;;;;;;4968282;28;20027;-82
2021/04/25 12:44:49;;;;;;;13.07;7.28;;;;;;;;;;4971056;28;20065;-82
2021/04/25 12:47:15;;;;;;;14.25;7.65;;;;;;;;;;4970159;28;20030;-83
2021/04/25 12:49:42;;;;;;;17.95;8.25;;;;;;;;;;4972290;28;20454;-83
2021/04/25 12:52:07;;;;;;;13.77;7.55;;;;;;;;;;4969791;28;20019;-88
2021/04/25 12:54:44;;;;;;;13.88;7.38;;;;;;;;;;4967188;28;20105;-83
2021/04/25 12:57:09;;;;;;;14.73;7.88;;;;;;;;;;4960238;28;20133;-80
2021/04/25 12:59:38;;;;;;;10.77;6.53;;;;;;;;;;4977011;28;20407;-81
2021/04/25 13:02:05;;;;;;;12.95;8.43;;;;;;;;;;4970543;28;20066;-82
2021/04/25 13:04:49;;;;;;;17.60;7.88;;;;;;;;;;4969445;28;20118;-80
2021/04/25 13:07:17;;;;;;;13.07;5.82;;;;;;;;;;4971197;28;20105;-87
2021/04/25 13:09:43;;;;;;;12.85;6.93;;;;;;;;;;4973642;28;20082;-89
2021/04/25 13:12:19;;;;;;;11.95;7.25;;;;;;;;;;4972923;28;20026;-81
2021/04/25 13:15:02;;;;;;;10.02;5.43;;;;;;;;;;4968273;28;20047;-82
2021/04/25 13:17:28;;;;;;;15.48;6.07;;;;;;;;;;4972987;28;20031;-79
2021/04/25 13:19:54;;;;;;;11.20;7.05;;;;;;;;;;4974543;28;20045;-88
2021/04/25 13:22:21;;;;;;;9.32;6.18;;;;;;;;;;4981360;28;20015;-87
2021/04/25 13:24:47;;;;;;;11.85;6.93;;;;;;;;;;4986286;28;20041;-89
2021/04/25 13:27:16;;;;;;;10.65;6.63;;;;;;;;;;4985149;28;20015;-83
2021/04/25 13:29:41;;;;;;;9.02;5.72;;;;;;;;;;4995674;28;20026;-86
2021/04/25 13:32:07;;;;;;;10.80;5.50;;;;;;;;;;4990536;28;20537;-88
2021/04/25 13:34:32;;;;;;;9.10;5.47;;;;;;;;;;4982058;28;20026;-88
2021/04/25 13:36:58;;;;;;;10.68;6.63;;;;;;;;;;4986790;28;20118;-87
2021/04/25 13:39:23;;;;;;;11.65;6.15;;;;;;;;;;4982891;28;20035;-89
2021/04/25 13:41:50;;;;;;;8.68;5.05;;;;;;;;;;4984847;28;20038;-88
2021/04/25 13:44:17;;;;;;;11.50;5.97;;;;;;;;;;4982964;28;20054;-87
2021/04/25 13:46:42;;;;;;;9.13;5.38;;;;;;;;;;4972803;28;20025;-85
2021/04/25 13:49:07;;;;;;;19.75;5.22;;;;;;;;;;4987623;28;20486;-85
2021/04/25 13:51:36;;;;;;;8.30;4.50;;;;;;;;;;4983885;28;20022;-83
2021/04/25 13:54:02;;;;;;;7.93;4.75;;;;;;;;;;4979777;28;20085;-83
2021/04/25 13:56:27;;;;;;;8.13;5.05;;;;;;;;;;4976373;28;20011;-83
2021/04/25 13:58:53;;;;;;;7.50;4.53;;;;;;;;;;4982822;28;20115;-82
2021/04/25 14:01:19;;;;;;;6.07;3.85;;;;;;;;;;4983166;28;20057;-82
2021/04/25 14:03:44;;;;;;;6.90;4.40;;;;;;;;;;4980510;28;20023;-82
2021/04/25 14:06:09;;;;;;;6.80;4.65;;;;;;;;;;4981546;28;20030;-81
2021/04/25 14:08:34;;;;;;;8.48;5.13;;;;;;;;;;4974924;28;20029;-82
2021/04/25 14:11:00;;;;;;;7.95;5.60;;;;;;;;;;4985105;28;20397;-80
2021/04/25 14:13:26;;;;;;;6.95;4.82;;;;;;;;;;4979437;28;20019;-79
2021/04/25 14:15:51;;;;;;;9.27;5.20;;;;;;;;;;4972883;28;20026;-78
2021/04/25 14:18:17;;;;;;;8.35;5.35;;;;;;;;;;4976748;28;20056;-78
2021/04/25 14:20:42;;;;;;;11.60;4.97;;;;;;;;;;4972247;28;20027;-78
2021/04/25 14:23:07;;;;;;;8.63;5.05;;;;;;;;;;4974138;28;20021;-78
2021/04/25 14:25:32;;;;;;;8.07;4.05;;;;;;;;;;4973584;28;20102;-77
2021/04/25 14:27:59;;;;;;;9.52;5.00;;;;;;;;;;4971266;28;20026;-79